Del Fair, Ohio
Current Conditions -  °F | °C
As of 10:57 AM on Saturday 22 Nov 2014 (Local Time) from KI69 Reporting Station
Overcast Overcast  
Wind Chill: 42°   Ceiling: 6000
Heat Index: 46°   Visibility: 10mi
Dew Point: 32°   Wind: 8mph
Humidity: 57%   Direction: 210°SSW
Pressure: 30.25"   Gusts: NA
Location:  39.1091°N, 84.6112°W
Report Text: KI69 221557Z AUTO 21007KT 10SM OVC060 08/00 A3025 RMK AO1
Loading
Personal Weather Stations






























Interactive Weather Map New forecast layout! Learn more

10-Day Weather Forecast

Advertisements
Track Severe Weather on mobile